Avella, Pennsylvania
Current Conditions -  °F | °C
As of 7:53 PM on Thursday 27 Nov 2014 (Local Time) from KHLG Reporting Station
Light Snow Light Snow  
Wind Chill: 20°   Ceiling: 4900
Heat Index: 28°   Visibility: 5mi
Dew Point: 24°   Wind: 8mph
Humidity: 85%   Direction: 260°W
Pressure: 30.22"   Gusts: NA
Location:  40.28°N, 80.46°W
Report Text: KHLG 280053Z 26007KT 5SM -SN BR FEW012 BKN049 OVC110 M02/M04 A3022 RMK AO2 SLP248 P0000 T10221044
Loading
Personal Weather Stations






























Interactive Weather Map New forecast layout! Learn more

10-Day Weather Forecast

Advertisements
Track Severe Weather on mobile